AirNav   Air Wisconsin Up To $57,000 Bonus
 
 598 users online  

60MD Walter Reed NTL Medical Center Heliport
Bethesda, Maryland, USA

GOING TO BETHESDA?


FAA INFORMATION EFFECTIVE 25 MARCH 2021

Location

FAA Identifier: 60MD
Lat/Long: 38-59-58.6200N 077-05-44.3700W
38-59.977000N 077-05.739500W
38.9996167,-77.0956583
(estimated)
Elevation: 326 ft. / 99 m (estimated)
From city: 1 mile N of BETHESDA, MD
Time zone: UTC -4 (UTC -5 during Standard Time)
Zip code: 20814

Heliport Operations

Heliport use: Private use. Permission required prior to landing
Activation date: 07/2013
Control tower: no
ARTCC: WASHINGTON CENTER
FSS: LEESBURG FLIGHT SERVICE STATION
Attendance: UNATNDD
Wind indicator: yes
Segmented circle: no

Heliport Communications

WX AWOS-3 at CGS (8 nm E): 121.225 (301-864-5497)
WX ASOS at DCA (9 nm S): 132.65 (703-418-1177)
WX AWOS-3PT at GAI (11 nm N): 128.275 (301-977-2971)
WX AWOS-3 at FME (16 nm E): 123.925
WX ASOS at IAD (17 nm W): PHONE 703-661-2990

Nearby radio navigation aids

VOR radial/distance  VOR name  Freq  Var
DCAr351/8.9WASHINGTON VOR/DME111.0009W
ADWr327/15.7ANDREWS VORTAC113.1010W
AMLr085/17.7ARMEL VOR/DME113.5008W
BALr254/22.7BALTIMORE VORTAC115.1011W
OTTr327/24.1NOTTINGHAM VORTAC113.7010W
FDKr160/(28.0)FREDERICK VOR109.0008W
EMIr198/30.2WESTMINSTER VORTAC117.9008W

 
NDB name  Hdg/Dist  Freq  Var  ID
GEORGETOWN027/4.432309WGTN --. - -.
OXONN358/14.433211WDCA -.. -.-. .-
DAVEE011/20.322309WDAA -.. .- .-
ELLICOTT232/22.837111WFND ..-. -. -..

Heliport Services

Runway Information

Helipad H1

Dimensions: 60 x 60 ft. / 18 x 18 m
Surface: concrete
Latitude: 38-59.977000N
Longitude: 077-05.739500W
Elevation: 326.0 ft.
Traffic pattern: leftleft

Heliport Ownership and Management from official FAA records

Ownership: U.S. Navy
Owner: NAVAL SUPPORT ACTIVITY BETHESDA
4655 TAYLOR ROAD
BETHESDA, MD 20889-5600
Phone 301-295-5479
Manager: CARL SAVARD
4655 TAYLOR ROAD
NORFOLK, VA 23507-5600
Phone 301-319-8304

Additional Remarks

NSA BETHESDA ALARM MONITOR CENTER COMM: 301-319-2934.
"WALTER REED HELIPAD" ON UNICOM 123.050. REQ 10 MIN NTC PRIOR TO ETA.
FOR CD CTC POTOMAC APCH AT 866-599-3874.

Instrument Procedures

There are no published instrument procedures at 60MD.

Some nearby airports with instrument procedures:

KCGS - College Park Airport (8 nm E)
KDCA - Ronald Reagan Washington NTL Airport (9 nm S)
KGAI - Montgomery County Airpark (11 nm N)
W50 - Davis Airport (15 nm N)
W00 - Freeway Airport (15 nm E)
KADW - Joint Base Andrews (16 nm SE)
KVKX - Potomac Airfield (16 nm SE)
KFME - Tipton Airport (16 nm E)
W32 - Washington Executive Airport/Hyde Field (17 nm SE)
KIAD - Washington Dulles International Airport (17 nm W)
 
Loc | Ops | Rwys | IFR | FBO | Links
Com | Nav | Svcs | Stats | Notes
Aerial photo
No photo
 
Airport distance calculator
Flying to Walter Reed NTL Medical Center Heliport? Find the distance to fly.

From to 60MD

Sunrise and sunset
Times for 18-Apr-2021
 Local
(UTC-4)
 Zulu
(UTC)
Morning civil twilight06:0110:01
Sunrise06:2910:29
Sunset19:4723:47
Evening civil twilight20:1500:15

Current date and time
Zulu (UTC)  18-Apr-2021 06:09:43
Local (UTC-4)  18-Apr-2021 02:09:43
 
METAR
KCGS 
8nm E 
180555Z AUTO 00000KT 10SM CLR 06/04 A2987 RMK AO1 T00610038 10125 20061
KDCA 
9nm S 
180552Z 30006KT 10SM FEW120 SCT250 12/02 A2987 RMK AO2 SLP116 T01170022 10139 20111 58000
KGAI 
11nm N 
180556Z AUTO 00000KT 10SM CLR 06/03 A2987 RMK AO2 SLP131 T00560033 10111 20050 58002
KADW 
15nm SE 
180556Z AUTO 31003KT 10SM CLR 08/05 A2986 RMK AO2 SLP119 T00800048 10125 20080 58001 $
KFME 
16nm E 
180555Z AUTO 00000KT 10SM CLR 05/04 A2989 RMK AO1
KIAD 
17nm W 
180552Z 29003KT 10SM SCT070 BKN120 07/04 A2987 RMK AO2 SLP116 T00720044 10128 20072 50000
KDAA 
17nm S 
180556Z AUTO 00000KT 10SM CLR 08/05 A2987 RMK AO2 SLP118 T00780054 10143 20078 50001 $
TAF
KDCA 
9nm S 
180537Z 1806/1912 34006KT P6SM SCT120 FM181400 31005KT P6SM FEW250 FM182200 28004KT P6SM SCT100 FM182300 26004KT P6SM BKN100
KADW 
15nm SE 
180100Z 1801/1907 VRB05KT 9999 BKN050 620509 QNH2983INS BECMG 1807/1808 29004KT 9999 FEW050 QNH2987INS BECMG 1818/1819 24006KT 9999 BKN050 620606 QNH2985INS TX17/1820Z TN07/1810Z
KIAD 
17nm W 
180537Z 1806/1912 00000KT P6SM SCT150 FM182100 29005KT P6SM BKN090 FM190700 VRB03KT P6SM BKN070
NOTAMs
Click for the latest NOTAMs
NOTAMs are issued by the DoD/FAA and will open in a separate window not controlled by AirNav.

 

 
 

Would you like to see your business listed on this page?

 If your business provides an interesting product or service to pilots, flight crews, aircraft, or users of the Walter Reed NTL Medical Center Heliport, you should consider listing it here.  To start the listing process, click on the button below
 
Add a business
 

Other Pages about Walter Reed NTL Medical Center Heliport

Update a link
 
Copyright © AirNav, LLC. All rights reserved. Privacy Policy  Contact